Time;durP1;ratioP1;P1;durP2;ratioP2;P2;SDS_P1;SDS_P2;PMS_P1;PMS_P2;Temp;Humidity;BMP_temperature;BMP_pressure;BME280_temperature;BME280_humidity;BME280_pressure;Samples;Min_cycle;Max_cycle;Signal;HPM_P1;HPM_P2
2023/09/09 00:01:32;;;;;;;83.63;42.73;;;20.50;99.90;;;;;;5139996;27;20284;-84
2023/09/09 00:03:59;;;;;;;83.87;38.83;;;20.50;99.90;;;;;;5116689;28;20452;-84
2023/09/09 00:06:24;;;;;;;81.77;35.87;;;20.60;99.90;;;;;;5083800;28;20184;-84
2023/09/09 00:08:50;;;;;;;81.10;31.23;;;20.70;99.90;;;;;;5049098;28;20520;-84
2023/09/09 00:11:16;;;;;;;80.97;34.17;;;20.90;99.30;;;;;;5072752;28;20203;-84
2023/09/09 00:13:41;;;;;;;83.03;36.00;;;21.00;96.70;;;;;;5055633;28;20633;-84
2023/09/09 00:16:09;;;;;;;82.93;36.87;;;20.80;99.90;;;;;;5064744;28;20208;-85
2023/09/09 00:21:14;;;;;;;91.00;44.27;;;20.60;99.90;;;;;;5143158;27;20528;-85
2023/09/09 00:23:39;;;;;;;85.10;44.30;;;20.50;99.90;;;;;;5130658;28;20873;-85
2023/09/09 00:26:05;;;;;;;85.07;38.00;;;20.40;99.90;;;;;;5156991;27;20451;-85
2023/09/09 00:28:32;;;;;;;88.67;47.03;;;20.20;99.90;;;;;;5158605;27;20178;-85
2023/09/09 00:30:58;;;;;;;84.53;39.80;;;20.30;99.90;;;;;;5111108;28;20194;-85
2023/09/09 00:33:23;;;;;;;86.87;42.70;;;20.20;99.90;;;;;;5058974;28;20515;-85
2023/09/09 00:35:49;;;;;;;83.30;39.27;;;20.20;99.90;;;;;;5037577;28;20474;-85
2023/09/09 00:38:15;;;;;;;90.20;44.63;;;20.20;99.90;;;;;;5015270;28;20236;-85
2023/09/09 00:40:44;;;;;;;87.10;44.13;;;20.30;99.90;;;;;;4978436;28;20709;-85
2023/09/09 00:44:54;;;;;;;89.53;53.40;;;20.30;99.90;;;;;;5161164;27;20510;-85
2023/09/09 00:47:20;;;;;;;89.40;50.73;;;20.40;99.90;;;;;;5154384;27;20775;-84
2023/09/09 00:49:45;;;;;;;89.40;47.77;;;20.50;99.90;;;;;;5156067;27;20201;-84
2023/09/09 00:52:11;;;;;;;87.80;49.67;;;20.60;99.90;;;;;;5137892;28;20178;-84
2023/09/09 00:54:37;;;;;;;85.00;44.63;;;20.60;99.90;;;;;;5130546;28;20193;-84
2023/09/09 00:57:05;;;;;;;86.27;45.83;;;20.60;99.90;;;;;;5108343;28;20591;-84
2023/09/09 00:59:31;;;;;;;86.23;45.03;;;20.60;99.90;;;;;;5090561;28;20199;-84
2023/09/09 01:01:57;;;;;;;85.70;44.70;;;20.40;99.90;;;;;;5037330;28;20516;-84
2023/09/09 01:07:01;;;;;;;84.60;40.33;;;20.30;99.90;;;;;;5157911;27;20281;-85
2023/09/09 01:09:29;;;;;;;87.93;52.90;;;20.30;99.90;;;;;;5135415;27;20432;-84
2023/09/09 01:11:57;;;;;;;85.40;44.93;;;20.50;99.90;;;;;;5136465;28;20431;-85
2023/09/09 01:14:23;;;;;;;88.67;44.80;;;20.40;99.90;;;;;;5119216;28;20435;-84
2023/09/09 01:16:51;;;;;;;87.83;41.23;;;20.20;99.90;;;;;;5103202;28;20435;-84
2023/09/09 01:19:19;;;;;;;84.93;38.53;;;20.00;99.90;;;;;;5016526;28;20186;-84
2023/09/09 01:21:46;;;;;;;86.33;48.70;;;20.00;99.90;;;;;;5043639;28;20522;-84
2023/09/09 01:24:19;;;;;;;89.67;49.37;;;20.20;99.90;;;;;;4961684;28;20464;-84
2023/09/09 01:29:08;;;;;;;90.40;51.00;;;20.20;99.90;;;;;;5160413;27;21018;-85
2023/09/09 01:31:34;;;;;;;89.80;51.17;;;20.10;99.90;;;;;;5131288;28;20445;-85
2023/09/09 01:33:59;;;;;;;85.07;43.00;;;20.00;99.90;;;;;;5120459;28;20213;-85
2023/09/09 01:36:25;;;;;;;83.80;39.30;;;19.90;99.90;;;;;;5119293;28;20191;-85
2023/09/09 01:38:51;;;;;;;82.33;37.70;;;19.80;99.90;;;;;;5131154;28;20289;-85
2023/09/09 01:41:16;;;;;;;88.97;42.73;;;19.70;99.90;;;;;;5100582;28;20428;-85
2023/09/09 01:43:42;;;;;;;93.03;54.67;;;19.80;99.90;;;;;;5103663;28;20572;-84
2023/09/09 01:46:08;;;;;;;88.67;51.87;;;19.90;99.90;;;;;;5036410;28;20186;-85
2023/09/09 01:48:37;;;;;;;88.10;53.63;;;19.80;99.90;;;;;;4937750;28;20282;-85
2023/09/09 01:53:03;;;;;;;94.57;58.47;;;19.90;99.90;;;;;;5160723;27;20498;-84
2023/09/09 01:55:29;;;;;;;91.50;43.13;;;19.70;99.90;;;;;;5140503;28;20415;-84
2023/09/09 01:57:55;;;;;;;91.53;41.37;;;19.70;99.90;;;;;;5135428;27;20190;-85
2023/09/09 02:00:20;;;;;;;86.13;44.43;;;19.60;99.90;;;;;;5152114;27;20226;-84
2023/09/09 02:02:46;;;;;;;91.97;48.67;;;19.70;99.90;;;;;;5135420;28;20519;-84
2023/09/09 02:05:12;;;;;;;92.30;47.37;;;19.70;99.90;;;;;;5108191;28;20232;-84
2023/09/09 02:07:37;;;;;;;89.70;36.87;;;19.60;99.90;;;;;;5106966;28;20204;-84
2023/09/09 02:10:03;;;;;;;83.93;39.63;;;19.50;99.90;;;;;;5048774;28;20206;-84
2023/09/09 02:12:30;;;;;;;90.67;47.40;;;19.50;99.90;;;;;;5038790;28;20209;-84
2023/09/09 02:17:41;;;;;;;91.67;49.37;;;19.60;99.90;;;;;;5158185;27;20286;-85
2023/09/09 02:20:10;;;;;;;90.40;45.10;;;19.50;99.90;;;;;;5105041;28;20454;-85
2023/09/09 02:22:39;;;;;;;91.37;41.47;;;19.40;99.90;;;;;;5095955;28;20418;-84
2023/09/09 02:25:07;;;;;;;84.77;41.70;;;19.30;99.90;;;;;;5110874;28;20435;-85
2023/09/09 02:27:33;;;;;;;89.03;42.23;;;19.30;99.90;;;;;;5071570;28;20931;-85
2023/09/09 02:30:05;;;;;;;90.70;43.77;;;19.40;99.90;;;;;;5056073;28;20533;-85
2023/09/09 02:32:30;;;;;;;91.97;44.70;;;19.60;99.90;;;;;;4983668;28;20191;-85
2023/09/09 02:34:57;;;;;;;86.00;40.27;;;19.40;99.90;;;;;;5003624;28;20422;-85
2023/09/09 02:40:22;;;;;;;85.60;36.53;;;19.20;99.90;;;;;;5153577;27;20529;-85
2023/09/09 02:42:47;;;;;;;85.23;36.33;;;19.20;99.90;;;;;;5153354;27;20422;-85
2023/09/09 02:45:13;;;;;;;84.93;33.87;;;19.20;99.90;;;;;;5162246;27;20179;-85
2023/09/09 02:47:39;;;;;;;83.20;36.97;;;19.10;99.90;;;;;;5162081;27;20178;-85
2023/09/09 02:50:05;;;;;;;84.23;35.30;;;19.20;99.90;;;;;;5160707;27;20326;-85
2023/09/09 02:52:31;;;;;;;81.60;31.60;;;19.30;99.90;;;;;;5134578;27;20178;-85
2023/09/09 02:54:56;;;;;;;79.57;29.63;;;19.20;99.90;;;;;;5138179;27;20414;-85
2023/09/09 02:57:22;;;;;;;84.23;33.97;;;19.20;99.90;;;;;;5119759;28;20232;-85
2023/09/09 02:59:48;;;;;;;80.77;30.63;;;19.20;99.90;;;;;;5081022;28;20213;-84
2023/09/09 03:03:36;;;;;;;84.83;37.37;;;19.10;99.90;;;;;;5161247;27;20502;-85
2023/09/09 03:06:02;;;;;;;84.90;30.43;;;19.00;99.90;;;;;;5115974;27;20432;-85
2023/09/09 03:08:27;;;;;;;82.20;31.90;;;19.00;99.90;;;;;;5161318;27;20421;-85
2023/09/09 03:10:53;;;;;;;83.57;30.43;;;19.00;99.90;;;;;;5147851;27;20446;-85
2023/09/09 03:13:22;;;;;;;80.73;29.20;;;19.00;99.90;;;;;;5114175;28;20186;-85
2023/09/09 03:15:48;;;;;;;81.70;29.47;;;19.00;99.90;;;;;;5059968;28;20449;-85
2023/09/09 03:18:13;;;;;;;82.67;31.53;;;19.00;99.90;;;;;;5022204;28;20434;-85
2023/09/09 03:20:39;;;;;;;80.90;28.10;;;18.90;99.90;;;;;;4939186;28;20261;-85
2023/09/09 03:25:40;;;;;;;86.60;34.37;;;18.90;99.90;;;;;;5157763;27;20284;-85
2023/09/09 03:28:05;;;;;;;81.47;29.23;;;19.00;99.90;;;;;;5133399;27;20426;-85
2023/09/09 03:30:52;;;;;;;81.30;32.20;;;18.80;99.90;;;;;;5127217;28;20667;-85
2023/09/09 03:33:18;;;;;;;80.90;33.30;;;18.80;99.90;;;;;;5107843;28;20173;-85
2023/09/09 03:35:43;;;;;;;80.00;26.03;;;18.80;99.90;;;;;;5054310;28;20944;-85
2023/09/09 03:38:09;;;;;;;87.87;36.23;;;18.80;99.90;;;;;;5051038;28;20193;-84
2023/09/09 03:40:34;;;;;;;81.13;29.00;;;18.80;99.90;;;;;;5050513;28;20204;-85
2023/09/09 03:43:00;;;;;;;85.70;33.10;;;18.70;99.90;;;;;;5025477;28;20554;-85
2023/09/09 03:45:26;;;;;;;84.00;30.73;;;18.70;99.90;;;;;;5025443;28;20203;-84
2023/09/09 03:50:28;;;;;;;80.20;28.83;;;18.70;99.90;;;;;;5154842;27;20524;-84
2023/09/09 03:52:54;;;;;;;84.10;30.37;;;18.70;99.90;;;;;;5158759;27;20426;-84
2023/09/09 03:55:20;;;;;;;81.10;28.80;;;18.70;99.90;;;;;;5163522;27;20213;-84
2023/09/09 03:57:45;;;;;;;79.13;26.33;;;18.70;99.90;;;;;;5162561;27;20185;-84
2023/09/09 04:00:12;;;;;;;80.87;29.40;;;18.60;99.90;;;;;;5156448;27;20624;-85
2023/09/09 04:02:38;;;;;;;82.80;33.17;;;18.70;99.90;;;;;;5145541;27;20219;-84
2023/09/09 04:05:05;;;;;;;87.43;32.50;;;18.70;99.90;;;;;;5123469;28;20421;-84
2023/09/09 04:07:35;;;;;;;83.60;32.63;;;18.70;99.90;;;;;;5076703;28;20188;-84
2023/09/09 04:10:01;;;;;;;83.00;31.50;;;18.70;99.90;;;;;;4979344;28;20468;-84
2023/09/09 04:13:56;;;;;;;82.77;32.13;;;18.60;99.90;;;;;;5162283;27;20518;-84
2023/09/09 04:16:21;;;;;;;83.60;32.40;;;18.60;99.90;;;;;;5132215;28;20428;-84
2023/09/09 04:18:47;;;;;;;86.20;32.20;;;18.50;99.90;;;;;;5160130;27;20185;-84
2023/09/09 04:21:13;;;;;;;84.20;32.33;;;18.40;99.90;;;;;;5143557;27;20202;-85
2023/09/09 04:23:38;;;;;;;83.87;32.33;;;18.40;99.90;;;;;;5100893;28;20192;-85
2023/09/09 04:26:04;;;;;;;82.20;29.43;;;18.40;99.90;;;;;;5093801;28;20444;-84
2023/09/09 04:28:30;;;;;;;86.97;34.80;;;18.40;99.90;;;;;;5035638;28;20184;-83
2023/09/09 04:30:56;;;;;;;82.57;33.40;;;18.50;99.90;;;;;;5048255;28;20199;-84
2023/09/09 04:33:21;;;;;;;84.10;27.77;;;18.40;99.90;;;;;;4943551;28;20218;-84
2023/09/09 04:38:37;;;;;;;84.87;34.10;;;18.40;99.90;;;;;;5165633;27;20775;-83
2023/09/09 04:41:14;;;;;;;86.50;34.53;;;18.30;99.90;;;;;;5141504;28;20439;-83
2023/09/09 04:43:44;;;;;;;88.40;37.93;;;18.30;99.90;;;;;;5093946;28;20430;-84
2023/09/09 04:46:41;;;;;;;84.00;34.90;;;18.30;99.90;;;;;;5115278;28;20780;-83
2023/09/09 04:49:08;;;;;;;88.87;38.57;;;18.30;99.90;;;;;;5090904;28;20420;-83
2023/09/09 04:51:34;;;;;;;84.77;36.20;;;18.30;99.90;;;;;;5094648;28;20449;-81
2023/09/09 04:53:59;;;;;;;84.90;36.03;;;18.30;99.90;;;;;;5027608;23;22468;-83
2023/09/09 04:56:25;;;;;;;85.50;38.53;;;18.30;99.90;;;;;;4881101;29;20231;-82
2023/09/09 05:00:27;;;;;;;89.87;46.80;;;18.30;99.90;;;;;;5145762;27;20516;-81
2023/09/09 05:02:53;;;;;;;87.00;38.73;;;18.20;99.90;;;;;;5149310;27;20419;-81
2023/09/09 05:05:18;;;;;;;89.40;44.20;;;18.30;99.90;;;;;;5153574;27;20181;-82
2023/09/09 05:07:44;;;;;;;87.77;40.90;;;18.20;99.90;;;;;;5152827;27;20722;-81
2023/09/09 05:10:10;;;;;;;90.03;41.80;;;18.30;99.90;;;;;;5143923;27;20229;-81
2023/09/09 05:12:38;;;;;;;88.63;40.63;;;18.20;99.90;;;;;;5127664;27;20185;-81
2023/09/09 05:15:06;;;;;;;89.17;45.20;;;18.20;99.90;;;;;;5107621;28;20175;-81
2023/09/09 05:17:32;;;;;;;87.00;43.70;;;18.10;99.90;;;;;;5105028;28;20416;-81
2023/09/09 05:19:58;;;;;;;89.23;45.40;;;18.20;99.90;;;;;;5039424;28;20982;-82
2023/09/09 05:25:01;;;;;;;86.23;43.77;;;18.30;99.90;;;;;;5153909;27;20514;-81
2023/09/09 05:27:27;;;;;;;89.33;45.80;;;18.20;99.90;;;;;;5130364;27;20767;-81
2023/09/09 05:29:52;;;;;;;86.70;41.90;;;18.20;99.90;;;;;;5125437;28;20202;-80
2023/09/09 05:32:18;;;;;;;89.50;39.70;;;18.30;99.90;;;;;;5092307;28;20250;-81
2023/09/09 05:34:44;;;;;;;85.53;42.10;;;18.30;99.90;;;;;;5121728;27;20173;-80
2023/09/09 05:37:09;;;;;;;89.60;42.43;;;18.30;99.90;;;;;;5130415;27;20181;-80
2023/09/09 05:39:35;;;;;;;89.43;39.33;;;18.40;99.90;;;;;;5095109;28;20550;-79
2023/09/09 05:42:02;;;;;;;83.93;36.30;;;18.40;99.90;;;;;;5019585;28;20189;-81
2023/09/09 05:44:31;;;;;;;86.87;42.63;;;18.40;99.90;;;;;;5027052;28;20684;-80
2023/09/09 05:48:42;;;;;;;88.80;44.67;;;18.40;99.90;;;;;;5153634;27;20498;-81
2023/09/09 05:51:08;;;;;;;90.10;44.03;;;18.40;99.90;;;;;;5133277;27;20443;-82
2023/09/09 05:53:34;;;;;;;84.40;39.20;;;18.40;99.90;;;;;;5132923;28;20651;-81
2023/09/09 05:56:00;;;;;;;87.77;45.50;;;18.40;99.90;;;;;;5131970;28;20241;-81
2023/09/09 05:58:25;;;;;;;88.40;40.03;;;18.40;99.90;;;;;;5110688;28;20861;-81
2023/09/09 06:00:51;;;;;;;88.10;39.80;;;18.50;99.90;;;;;;5106199;28;20647;-82
2023/09/09 06:03:17;;;;;;;85.50;40.83;;;18.60;99.90;;;;;;5127997;28;20178;-79
2023/09/09 06:05:42;;;;;;;83.57;33.30;;;18.60;99.90;;;;;;5125685;28;20177;-82
2023/09/09 06:08:08;;;;;;;82.37;31.20;;;18.70;99.90;;;;;;5103574;28;20676;-82
2023/09/09 06:14:09;;;;;;;85.60;34.87;;;18.80;99.90;;;;;;5154086;27;20506;-82
2023/09/09 06:16:35;;;;;;;82.40;30.17;;;18.80;99.90;;;;;;5148967;27;20423;-81
2023/09/09 06:19:01;;;;;;;84.30;33.30;;;18.80;99.90;;;;;;5153313;27;20582;-82
2023/09/09 06:21:27;;;;;;;82.47;33.50;;;18.90;99.90;;;;;;5134798;27;20680;-81
2023/09/09 06:23:53;;;;;;;81.43;31.40;;;18.90;99.90;;;;;;5124813;28;20526;-81
2023/09/09 06:26:19;;;;;;;83.10;34.07;;;19.00;99.90;;;;;;5066504;28;20223;-82
2023/09/09 06:28:44;;;;;;;80.57;31.10;;;19.00;99.90;;;;;;5052999;28;20176;-81
2023/09/09 06:31:10;;;;;;;83.00;27.90;;;19.00;99.90;;;;;;5060709;28;20246;-81
2023/09/09 06:33:36;;;;;;;81.47;26.93;;;19.10;99.90;;;;;;5037092;28;20208;-82
2023/09/09 06:38:35;;;;;;;86.97;24.10;;;19.20;99.90;;;;;;5153492;27;20340;-81
2023/09/09 06:41:01;;;;;;;82.47;23.93;;;19.40;99.90;;;;;;5132097;28;20916;-81
2023/09/09 06:43:27;;;;;;;79.73;24.17;;;19.40;99.90;;;;;;5133057;27;20687;-81
2023/09/09 06:45:53;;;;;;;82.93;28.80;;;19.50;99.90;;;;;;5112867;28;20181;-81
2023/09/09 06:48:18;;;;;;;86.43;31.00;;;19.50;99.90;;;;;;5094932;28;20194;-85
2023/09/09 06:50:45;;;;;;;83.30;31.93;;;19.60;99.90;;;;;;5024502;28;20232;-84
2023/09/09 06:53:11;;;;;;;83.03;33.23;;;19.60;99.90;;;;;;4987694;28;20180;-85
2023/09/09 06:55:37;;;;;;;83.07;30.83;;;19.60;99.90;;;;;;4953088;28;20431;-85
2023/09/09 06:58:03;;;;;;;83.90;32.20;;;19.60;99.90;;;;;;4910235;28;20347;-84
2023/09/09 07:02:17;;;;;;;99.93;52.43;;;19.60;99.90;;;;;;5158675;27;20500;-85
2023/09/09 07:04:44;;;;;;;95.80;43.07;;;19.80;99.90;;;;;;5153717;27;20774;-85
2023/09/09 07:07:10;;;;;;;99.47;54.10;;;19.80;99.90;;;;;;5158103;27;20501;-85
2023/09/09 07:09:35;;;;;;;93.57;46.53;;;19.90;99.90;;;;;;5153212;27;20420;-83
2023/09/09 07:12:02;;;;;;;89.97;41.70;;;19.90;99.90;;;;;;5099302;28;20252;-84
2023/09/09 07:14:28;;;;;;;97.43;54.97;;;20.00;99.90;;;;;;5011332;28;20188;-84
2023/09/09 07:16:54;;;;;;;95.03;60.57;;;20.10;99.90;;;;;;5036228;28;20418;-84
2023/09/09 07:19:20;;;;;;;101.27;66.63;;;20.20;99.90;;;;;;5013942;28;20181;-84
2023/09/09 07:21:45;;;;;;;106.60;74.73;;;20.20;99.90;;;;;;4956408;28;20218;-84
2023/09/09 07:25:28;;;;;;;102.83;86.47;;;20.30;99.90;;;;;;5155686;27;20499;-84
2023/09/09 07:27:54;;;;;;;105.97;91.90;;;20.40;99.90;;;;;;5149459;27;20426;-84
2023/09/09 07:30:19;;;;;;;105.70;81.80;;;20.40;99.90;;;;;;5109574;28;20203;-83
2023/09/09 07:32:49;;;;;;;102.43;64.00;;;20.50;99.90;;;;;;5097423;27;20444;-85
2023/09/09 07:35:15;;;;;;;103.87;80.17;;;20.40;99.90;;;;;;5112459;28;20180;-85
2023/09/09 07:37:40;;;;;;;102.53;61.70;;;20.50;99.90;;;;;;5045253;28;20970;-84
2023/09/09 07:40:07;;;;;;;101.10;82.53;;;20.60;99.90;;;;;;4991455;28;20207;-85
2023/09/09 07:42:35;;;;;;;106.17;84.27;;;20.70;99.90;;;;;;4899383;29;20567;-85
2023/09/09 07:45:01;;;;;;;102.30;81.67;;;20.80;99.90;;;;;;4872580;29;20466;-85
2023/09/09 07:48:53;;;;;;;104.47;88.70;;;20.80;99.90;;;;;;5157101;27;20498;-84
2023/09/09 07:51:20;;;;;;;103.17;85.37;;;20.80;99.90;;;;;;5129068;28;20448;-83
2023/09/09 07:53:46;;;;;;;103.20;78.80;;;20.90;99.90;;;;;;5117342;28;20244;-84
2023/09/09 07:56:18;;;;;;;100.77;82.60;;;21.00;99.90;;;;;;5093880;28;20430;-81
2023/09/09 07:58:44;;;;;;;105.67;86.27;;;21.00;99.90;;;;;;5063212;28;20476;-84
2023/09/09 08:01:10;;;;;;;108.30;93.63;;;21.00;99.90;;;;;;5030706;28;20454;-84
2023/09/09 08:03:36;;;;;;;105.50;86.20;;;21.10;99.90;;;;;;4970881;28;20178;-84
2023/09/09 08:06:04;;;;;;;108.60;93.50;;;21.20;99.90;;;;;;4932669;28;20463;-85
2023/09/09 08:08:30;;;;;;;110.73;98.33;;;21.20;99.90;;;;;;4688358;29;20224;-84
2023/09/09 08:12:35;;;;;;;108.87;91.27;;;21.30;99.90;;;;;;5156165;27;20502;-83
2023/09/09 08:15:09;;;;;;;109.20;90.47;;;21.40;99.90;;;;;;5133953;27;20439;-84
2023/09/09 08:17:34;;;;;;;105.47;91.90;;;21.50;99.90;;;;;;5110562;28;20171;-85
2023/09/09 08:20:03;;;;;;;104.30;82.63;;;21.50;99.90;;;;;;5089065;28;20488;-84
2023/09/09 08:22:29;;;;;;;110.60;93.77;;;21.60;99.90;;;;;;5096070;28;21356;-85
2023/09/09 08:24:55;;;;;;;107.83;92.93;;;21.70;99.90;;;;;;5089400;28;20417;-81
2023/09/09 08:27:21;;;;;;;105.70;81.60;;;21.80;99.90;;;;;;5069312;28;20487;-82
2023/09/09 08:29:47;;;;;;;111.00;76.87;;;21.90;99.90;;;;;;5022920;28;20507;-82
2023/09/09 08:32:12;;;;;;;103.17;85.33;;;21.90;99.90;;;;;;4949931;28;20304;-82
2023/09/09 08:36:16;;;;;;;97.70;69.83;;;22.00;99.90;;;;;;5154382;27;20502;-82
2023/09/09 08:38:42;;;;;;;107.50;81.30;;;22.10;99.90;;;;;;5129872;27;20428;-82
2023/09/09 08:41:21;;;;;;;99.67;77.47;;;22.20;99.90;;;;;;5138323;27;20560;-82
2023/09/09 08:44:37;;;;;;;95.97;60.73;;;22.30;99.90;;;;;;5105505;28;20199;-82
2023/09/09 08:47:03;;;;;;;92.20;60.70;;;22.30;99.90;;;;;;4998472;28;20418;-82
2023/09/09 08:49:33;;;;;;;95.17;65.43;;;22.40;99.90;;;;;;4981156;28;20430;-82
2023/09/09 08:52:06;;;;;;;97.20;66.87;;;22.50;99.90;;;;;;4881386;29;20199;-82
2023/09/09 08:54:32;;;;;;;91.23;53.00;;;22.60;99.20;;;;;;4820796;29;20494;-83
2023/09/09 08:56:59;;;;;;;92.20;55.63;;;22.70;95.90;;;;;;4793465;29;20441;-83
2023/09/09 09:01:27;;;;;;;93.67;53.57;;;22.70;98.00;;;;;;5137026;27;20523;-82
2023/09/09 09:03:54;;;;;;;89.87;50.17;;;23.00;93.40;;;;;;5132535;27;20476;-82
2023/09/09 09:06:21;;;;;;;94.00;50.87;;;23.10;90.70;;;;;;5153357;27;20418;-81
2023/09/09 09:08:46;;;;;;;90.17;48.90;;;23.10;87.40;;;;;;5154116;27;20457;-82
2023/09/09 09:11:13;;;;;;;92.30;50.90;;;23.20;87.90;;;;;;5143345;27;20467;-82
2023/09/09 09:13:39;;;;;;;94.60;54.40;;;23.30;81.40;;;;;;5124351;27;20173;-82
2023/09/09 09:16:05;;;;;;;92.80;56.97;;;23.40;80.10;;;;;;5149341;27;20422;-82
2023/09/09 09:18:30;;;;;;;95.17;57.17;;;23.50;78.60;;;;;;5119790;28;20183;-83
2023/09/09 09:21:10;;;;;;;91.47;54.67;;;23.60;73.70;;;;;;4978220;28;20218;-83
2023/09/09 09:25:47;;;;;;;84.27;24.97;;;23.80;47.90;;;;;;5155301;27;20498;-83
2023/09/09 09:28:14;;;;;;;85.13;23.53;;;23.90;45.10;;;;;;5132977;27;20914;-82
2023/09/09 09:30:40;;;;;;;84.37;30.17;;;24.00;35.80;;;;;;5145553;27;20438;-82
2023/09/09 09:33:05;;;;;;;77.07;20.90;;;24.10;32.90;;;;;;5134225;28;20499;-82
2023/09/09 09:35:33;;;;;;;86.00;21.30;;;24.20;26.90;;;;;;5107702;28;20223;-82
2023/09/09 09:38:06;;;;;;;83.00;25.27;;;24.40;20.00;;;;;;5071784;28;20256;-82
2023/09/09 09:40:34;;;;;;;78.20;12.87;;;24.50;29.00;;;;;;5066625;28;20445;-82
2023/09/09 09:42:59;;;;;;;75.50;10.90;;;24.60;4.60;;;;;;5046047;28;20419;-82
2023/09/09 09:45:27;;;;;;;79.70;11.70;;;24.60;1.00;;;;;;5001100;28;20611;-83
2023/09/09 09:50:05;;;;;;;75.40;9.77;;;24.80;3.50;;;;;;5149560;27;20535;-83
2023/09/09 09:52:31;;;;;;;75.50;9.70;;;25.10;2.10;;;;;;5152559;27;20423;-82
2023/09/09 09:54:57;;;;;;;74.63;9.73;;;25.20;1.00;;;;;;5156028;27;20423;-82
2023/09/09 09:57:23;;;;;;;76.47;9.90;;;25.40;1.00;;;;;;5153853;27;20195;-83
2023/09/09 09:59:49;;;;;;;73.70;9.93;;;25.60;1.00;;;;;;5086339;28;20197;-82
2023/09/09 10:02:15;;;;;;;79.50;11.50;;;25.80;1.00;;;;;;5097510;28;20420;-83
2023/09/09 10:04:49;;;;;;;78.70;11.50;;;26.00;1.00;;;;;;5107147;28;20179;-82
2023/09/09 10:07:21;;;;;;;73.90;9.97;;;26.30;1.00;;;;;;5057726;28;20185;-82
2023/09/09 10:10:04;;;;;;;75.77;11.43;;;26.40;1.00;;;;;;5016925;28;20474;-82
2023/09/09 10:14:46;;;;;;;78.60;13.43;;;26.70;1.00;;;;;;5156667;27;20498;-82
2023/09/09 10:17:14;;;;;;;76.60;11.00;;;27.20;1.00;;;;;;5131039;27;20428;-82
2023/09/09 10:19:41;;;;;;;77.60;10.63;;;27.40;1.00;;;;;;5133915;27;20434;-83
2023/09/09 10:22:08;;;;;;;76.53;9.93;;;27.40;1.00;;;;;;5133048;28;20419;-83
2023/09/09 10:24:35;;;;;;;79.17;8.77;;;27.70;1.00;;;;;;5089070;28;20430;-81
2023/09/09 10:27:03;;;;;;;84.57;10.47;;;28.00;1.00;;;;;;5042185;28;20428;-82
2023/09/09 10:29:31;;;;;;;78.10;10.50;;;28.10;1.00;;;;;;5024757;28;20428;-82
2023/09/09 10:32:01;;;;;;;80.60;13.17;;;28.00;1.00;;;;;;5002192;28;20927;-82
2023/09/09 10:34:29;;;;;;;79.10;14.10;;;27.90;1.00;;;;;;4963056;28;20775;-82
2023/09/09 10:37:57;;;;;;;75.30;13.67;;;27.90;1.00;;;;;;5155172;27;20499;-82
2023/09/09 10:40:25;;;;;;;78.47;17.10;;;28.30;1.00;;;;;;5131715;27;20493;-82
2023/09/09 10:42:52;;;;;;;79.10;19.17;;;28.40;1.00;;;;;;5154002;27;20422;-82
2023/09/09 10:45:32;;;;;;;83.63;17.80;;;28.60;1.00;;;;;;5153722;27;20425;-82
2023/09/09 10:48:03;;;;;;;78.00;12.60;;;28.90;1.00;;;;;;5122178;28;20417;-82
2023/09/09 10:50:47;;;;;;;84.57;12.67;;;29.30;1.00;;;;;;5077631;28;20435;-82
2023/09/09 10:53:25;;;;;;;80.20;10.20;;;29.50;1.00;;;;;;5008453;28;20504;-82
2023/09/09 10:55:58;;;;;;;80.57;9.07;;;29.70;1.00;;;;;;5041345;23;20552;-79
2023/09/09 10:58:37;;;;;;;79.20;9.10;;;29.80;1.00;;;;;;4934967;28;20420;-79
2023/09/09 11:03:25;;;;;;;75.90;8.70;;;29.90;1.00;;;;;;5154746;27;20340;-80
2023/09/09 11:06:05;;;;;;;77.10;10.00;;;30.00;1.00;;;;;;5135242;27;20416;-79
2023/09/09 11:08:46;;;;;;;75.17;9.00;;;30.20;1.00;;;;;;5110113;28;20427;-79
2023/09/09 11:11:16;;;;;;;80.87;12.10;;;30.40;1.00;;;;;;5036735;28;20468;-79
2023/09/09 11:13:50;;;;;;;83.13;15.37;;;30.50;1.00;;;;;;4991133;28;20512;-79
2023/09/09 11:16:37;;;;;;;75.87;13.10;;;30.80;1.00;;;;;;4948848;28;20437;-79
2023/09/09 11:19:08;;;;;;;80.10;12.43;;;30.70;1.00;;;;;;4881577;29;20441;-79
2023/09/09 11:21:55;;;;;;;89.43;12.27;;;30.90;1.00;;;;;;4841786;29;20480;-79
2023/09/09 11:27:05;;;;;;;89.57;10.47;;;31.10;1.00;;;;;;5154538;27;21036;-79
2023/09/09 11:29:31;;;;;;;77.23;9.27;;;31.20;1.00;;;;;;5131958;27;20445;-79
2023/09/09 11:31:57;;;;;;;82.97;8.67;;;31.40;1.00;;;;;;5113558;28;20420;-79
2023/09/09 11:34:33;;;;;;;75.30;7.70;;;31.60;1.00;;;;;;5112964;28;20214;-79
2023/09/09 11:37:03;;;;;;;75.57;8.97;;;31.80;1.00;;;;;;5095186;28;20192;-79
2023/09/09 11:39:29;;;;;;;80.87;8.17;;;31.80;1.00;;;;;;5064996;28;20443;-80
2023/09/09 11:41:55;;;;;;;75.90;8.70;;;31.60;1.00;;;;;;5086753;28;20486;-79
2023/09/09 11:44:21;;;;;;;86.43;9.07;;;31.50;1.00;;;;;;5041903;28;20195;-79
2023/09/09 11:46:49;;;;;;;84.70;8.73;;;31.60;1.00;;;;;;5030065;28;20212;-79
2023/09/09 11:52:22;;;;;;;81.60;9.33;;;32.00;1.00;;;;;;5154644;27;20506;-79
2023/09/09 11:54:49;;;;;;;80.80;8.77;;;32.10;1.00;;;;;;5131178;27;20422;-79
2023/09/09 11:57:15;;;;;;;80.30;9.13;;;32.10;1.00;;;;;;5132545;27;20431;-80
2023/09/09 11:59:49;;;;;;;76.00;8.50;;;32.10;1.00;;;;;;5150329;27;20928;-79
2023/09/09 12:02:23;;;;;;;78.60;8.50;;;32.20;1.00;;;;;;5131062;28;20209;-79
2023/09/09 12:04:59;;;;;;;86.03;9.43;;;32.30;1.00;;;;;;5076401;28;20422;-79
2023/09/09 12:07:36;;;;;;;83.87;8.50;;;32.40;1.00;;;;;;5047227;28;20517;-79
2023/09/09 12:10:07;;;;;;;80.07;8.50;;;32.20;1.00;;;;;;4924129;28;20500;-79
2023/09/09 12:12:33;;;;;;;84.20;8.20;;;32.30;1.00;;;;;;4822244;29;20441;-79
2023/09/09 12:16:30;;;;;;;78.80;7.20;;;32.60;1.00;;;;;;5153916;27;20502;-79
2023/09/09 12:18:56;;;;;;;75.97;7.83;;;32.50;1.00;;;;;;5128081;27;20427;-78
2023/09/09 12:21:23;;;;;;;76.27;7.57;;;32.50;1.00;;;;;;5137614;27;20517;-78
2023/09/09 12:23:55;;;;;;;76.37;7.70;;;32.30;1.00;;;;;;5132818;28;20528;-78
2023/09/09 12:26:21;;;;;;;83.63;7.63;;;32.30;1.00;;;;;;5089894;28;20419;-78
2023/09/09 12:29:06;;;;;;;80.07;7.50;;;32.50;1.00;;;;;;5047801;28;20426;-79
2023/09/09 12:31:33;;;;;;;77.23;7.27;;;32.60;1.00;;;;;;5037319;28;20671;-78
2023/09/09 12:33:59;;;;;;;81.83;7.47;;;32.70;1.00;;;;;;4975523;28;20422;-79
2023/09/09 12:36:25;;;;;;;74.23;7.67;;;32.80;1.00;;;;;;4937881;28;20500;-78
2023/09/09 12:41:28;;;;;;;81.03;5.90;;;32.30;1.00;;;;;;5137552;27;20527;-79
2023/09/09 12:43:54;;;;;;;77.87;7.93;;;32.60;1.00;;;;;;5149341;27;20790;-79
2023/09/09 12:46:27;;;;;;;82.17;6.50;;;32.70;1.00;;;;;;5215787;22;20229;-79
2023/09/09 12:51:25;;;;;;;77.80;6.80;;;32.70;1.00;;;;;;5031630;28;20495;-78
2023/09/09 12:53:53;;;;;;;76.57;7.77;;;32.60;1.00;;;;;;4977776;28;20436;-79
2023/09/09 12:56:19;;;;;;;80.03;7.43;;;32.60;1.00;;;;;;4922667;28;20925;-79
2023/09/09 12:58:45;;;;;;;72.87;7.13;;;32.70;1.00;;;;;;4834121;29;20442;-79
2023/09/09 13:01:11;;;;;;;75.50;6.40;;;32.60;1.00;;;;;;4731906;29;20491;-78
2023/09/09 13:04:39;;;;;;;76.57;6.93;;;32.40;1.00;;;;;;5154159;27;20499;-79
2023/09/09 13:07:06;;;;;;;78.80;7.13;;;32.50;1.00;;;;;;5149662;27;20422;-79
2023/09/09 13:09:31;;;;;;;74.17;7.50;;;32.60;1.00;;;;;;5153122;27;20173;-78
2023/09/09 13:11:57;;;;;;;74.07;7.10;;;32.70;1.00;;;;;;5132455;28;20767;-79
2023/09/09 13:14:23;;;;;;;80.00;9.23;;;32.70;1.00;;;;;;5110739;28;20246;-79
2023/09/09 13:16:49;;;;;;;81.60;9.60;;;32.70;1.00;;;;;;5088069;28;20194;-79
2023/09/09 13:19:16;;;;;;;73.50;6.90;;;32.50;1.00;;;;;;5115751;28;20182;-78
2023/09/09 13:21:42;;;;;;;71.87;7.27;;;32.40;1.00;;;;;;5098960;28;20456;-79
2023/09/09 13:24:07;;;;;;;76.03;8.93;;;32.40;1.00;;;;;;5098328;28;20460;-78
2023/09/09 13:28:21;;;;;;;75.87;9.27;;;32.50;1.00;;;;;;5153820;27;20494;-79
2023/09/09 13:30:46;;;;;;;76.00;8.80;;;32.50;1.00;;;;;;5137429;27;20448;-79
2023/09/09 13:33:12;;;;;;;75.10;9.47;;;32.50;1.00;;;;;;5132497;28;20686;-78
2023/09/09 13:35:38;;;;;;;77.67;9.37;;;32.40;1.00;;;;;;5132207;28;20197;-79
2023/09/09 13:38:04;;;;;;;76.20;9.17;;;32.40;1.00;;;;;;5118102;28;20531;-79
2023/09/09 13:40:30;;;;;;;73.47;10.30;;;32.50;1.00;;;;;;5054905;28;20213;-79
2023/09/09 13:43:02;;;;;;;78.33;10.90;;;32.70;1.00;;;;;;5049529;28;20489;-78
2023/09/09 13:45:28;;;;;;;78.90;9.70;;;32.80;1.00;;;;;;5064480;28;20521;-79
2023/09/09 13:47:53;;;;;;;75.13;10.40;;;32.80;1.00;;;;;;4996223;28;21064;-78